sensor_id;sensor_type;location;lat;lon;timestamp;pressure;altitude;pressure_sealevel;temperature;humidity
45888;BME280;31595;51.418;7.572;2022-07-12T00:00:13;101141.81;;;16.65;72.47
45888;BME280;31595;51.418;7.572;2022-07-12T00:02:40;101138.88;;;16.61;72.61
45888;BME280;31595;51.418;7.572;2022-07-12T00:05:07;101130.06;;;16.63;72.13
45888;BME280;31595;51.418;7.572;2022-07-12T00:07:35;101142.16;;;16.63;72.35
45888;BME280;31595;51.418;7.572;2022-07-12T00:10:03;101131.41;;;16.66;72.31
45888;BME280;31595;51.418;7.572;2022-07-12T00:12:31;101130.69;;;16.69;72.12
45888;BME280;31595;51.418;7.572;2022-07-12T00:14:58;101135.84;;;16.67;72.15
45888;BME280;31595;51.418;7.572;2022-07-12T00:17:27;101132.38;;;16.70;72.21
45888;BME280;31595;51.418;7.572;2022-07-12T00:19:54;101130.84;;;16.72;72.01
45888;BME280;31595;51.418;7.572;2022-07-12T00:22:21;101121.59;;;16.72;72.19
45888;BME280;31595;51.418;7.572;2022-07-12T00:24:49;101125.03;;;16.77;72.03
45888;BME280;31595;51.418;7.572;2022-07-12T00:27:16;101130.00;;;16.80;71.83
45888;BME280;31595;51.418;7.572;2022-07-12T00:29:44;101125.69;;;16.83;71.83
45888;BME280;31595;51.418;7.572;2022-07-12T00:32:11;101126.88;;;16.82;71.88
45888;BME280;31595;51.418;7.572;2022-07-12T00:34:40;101135.13;;;16.78;72.14
45888;BME280;31595;51.418;7.572;2022-07-12T00:37:07;101123.38;;;16.76;72.05
45888;BME280;31595;51.418;7.572;2022-07-12T00:39:34;101126.19;;;16.76;72.01
45888;BME280;31595;51.418;7.572;2022-07-12T00:42:02;101125.38;;;16.76;72.03
45888;BME280;31595;51.418;7.572;2022-07-12T00:44:29;101118.44;;;16.73;72.06
45888;BME280;31595;51.418;7.572;2022-07-12T00:46:59;101119.13;;;16.70;72.17
45888;BME280;31595;51.418;7.572;2022-07-12T00:49:27;101122.25;;;16.69;72.12
45888;BME280;31595;51.418;7.572;2022-07-12T00:51:56;101114.63;;;16.69;72.08
45888;BME280;31595;51.418;7.572;2022-07-12T00:54:23;101111.56;;;16.62;72.12
45888;BME280;31595;51.418;7.572;2022-07-12T00:56:51;101110.09;;;16.56;72.23
45888;BME280;31595;51.418;7.572;2022-07-12T00:59:18;101108.31;;;16.51;72.35
45888;BME280;31595;51.418;7.572;2022-07-12T01:01:46;101108.97;;;16.48;72.35
45888;BME280;31595;51.418;7.572;2022-07-12T01:04:13;101113.28;;;16.46;72.30
45888;BME280;31595;51.418;7.572;2022-07-12T01:06:44;101116.00;;;16.33;72.25
45888;BME280;31595;51.418;7.572;2022-07-12T01:09:13;101107.44;;;16.30;72.08
45888;BME280;31595;51.418;7.572;2022-07-12T01:11:40;101105.28;;;16.27;71.96
45888;BME280;31595;51.418;7.572;2022-07-12T01:14:10;101098.19;;;16.20;72.14
45888;BME280;31595;51.418;7.572;2022-07-12T01:16:37;101105.03;;;16.11;72.25
45888;BME280;31595;51.418;7.572;2022-07-12T01:19:06;101108.34;;;16.04;72.32
45888;BME280;31595;51.418;7.572;2022-07-12T01:21:37;101102.44;;;15.97;72.89
45888;BME280;31595;51.418;7.572;2022-07-12T01:24:06;101106.91;;;15.89;73.01
45888;BME280;31595;51.418;7.572;2022-07-12T01:26:35;101112.38;;;15.86;73.19
45888;BME280;31595;51.418;7.572;2022-07-12T01:29:03;101110.72;;;15.85;73.29
45888;BME280;31595;51.418;7.572;2022-07-12T01:31:33;101109.75;;;15.80;73.20
45888;BME280;31595;51.418;7.572;2022-07-12T01:34:01;101105.28;;;15.79;73.10
45888;BME280;31595;51.418;7.572;2022-07-12T01:36:29;101103.13;;;15.76;73.40
45888;BME280;31595;51.418;7.572;2022-07-12T01:38:56;101104.16;;;15.72;73.29
45888;BME280;31595;51.418;7.572;2022-07-12T01:41:25;101107.59;;;15.69;73.52
45888;BME280;31595;51.418;7.572;2022-07-12T01:43:52;101101.13;;;15.68;73.31
45888;BME280;31595;51.418;7.572;2022-07-12T01:46:20;101103.47;;;15.66;73.06
45888;BME280;31595;51.418;7.572;2022-07-12T01:48:47;101104.78;;;15.60;73.04
45888;BME280;31595;51.418;7.572;2022-07-12T01:51:14;101103.81;;;15.56;73.30
45888;BME280;31595;51.418;7.572;2022-07-12T01:53:42;101096.38;;;15.51;73.36
45888;BME280;31595;51.418;7.572;2022-07-12T01:56:09;101090.63;;;15.48;73.36
45888;BME280;31595;51.418;7.572;2022-07-12T01:58:38;101090.97;;;15.46;73.38
45888;BME280;31595;51.418;7.572;2022-07-12T02:01:06;101087.16;;;15.42;73.39
45888;BME280;31595;51.418;7.572;2022-07-12T02:03:35;101095.91;;;15.40;73.20
45888;BME280;31595;51.418;7.572;2022-07-12T02:06:03;101079.38;;;15.39;73.26
45888;BME280;31595;51.418;7.572;2022-07-12T02:08:30;101087.66;;;15.35;73.23
45888;BME280;31595;51.418;7.572;2022-07-12T02:10:57;101089.50;;;15.31;73.37
45888;BME280;31595;51.418;7.572;2022-07-12T02:13:25;101086.50;;;15.28;73.65
45888;BME280;31595;51.418;7.572;2022-07-12T02:15:53;101086.34;;;15.24;73.58
45888;BME280;31595;51.418;7.572;2022-07-12T02:18:21;101082.53;;;15.20;73.64
45888;BME280;31595;51.418;7.572;2022-07-12T02:20:48;101089.47;;;15.14;73.79
45888;BME280;31595;51.418;7.572;2022-07-12T02:23:15;101093.78;;;15.11;73.77
45888;BME280;31595;51.418;7.572;2022-07-12T02:25:42;101096.56;;;15.11;73.87
45888;BME280;31595;51.418;7.572;2022-07-12T02:28:10;101105.31;;;15.10;74.04
45888;BME280;31595;51.418;7.572;2022-07-12T02:30:37;101106.31;;;15.05;74.23
45888;BME280;31595;51.418;7.572;2022-07-12T02:33:06;101108.97;;;15.01;74.01
45888;BME280;31595;51.418;7.572;2022-07-12T02:35:33;101111.09;;;14.96;73.94
45888;BME280;31595;51.418;7.572;2022-07-12T02:38:00;101106.63;;;14.95;73.55
45888;BME280;31595;51.418;7.572;2022-07-12T02:40:27;101113.59;;;14.97;73.05
45888;BME280;31595;51.418;7.572;2022-07-12T02:43:12;101117.72;;;14.91;73.26
45888;BME280;31595;51.418;7.572;2022-07-12T02:45:40;101121.00;;;14.85;73.39
45888;BME280;31595;51.418;7.572;2022-07-12T02:48:08;101127.25;;;14.73;73.78
45888;BME280;31595;51.418;7.572;2022-07-12T02:50:38;101136.97;;;14.75;73.60
45888;BME280;31595;51.418;7.572;2022-07-12T02:53:05;101135.16;;;14.71;73.90
45888;BME280;31595;51.418;7.572;2022-07-12T02:55:36;101124.56;;;14.68;73.72
45888;BME280;31595;51.418;7.572;2022-07-12T02:58:03;101134.16;;;14.67;73.39
45888;BME280;31595;51.418;7.572;2022-07-12T03:00:32;101135.94;;;14.63;73.42
45888;BME280;31595;51.418;7.572;2022-07-12T03:03:00;101138.25;;;14.60;73.26
45888;BME280;31595;51.418;7.572;2022-07-12T03:05:29;101140.06;;;14.56;73.79
45888;BME280;31595;51.418;7.572;2022-07-12T03:07:56;101138.19;;;14.52;73.87
45888;BME280;31595;51.418;7.572;2022-07-12T03:10:23;101149.38;;;14.43;74.34
45888;BME280;31595;51.418;7.572;2022-07-12T03:12:50;101156.00;;;14.47;74.46
45888;BME280;31595;51.418;7.572;2022-07-12T03:15:18;101157.13;;;14.46;74.50
45888;BME280;31595;51.418;7.572;2022-07-12T03:17:45;101152.34;;;14.47;74.47
45888;BME280;31595;51.418;7.572;2022-07-12T03:20:13;101147.59;;;14.47;74.28
45888;BME280;31595;51.418;7.572;2022-07-12T03:22:42;101146.09;;;14.50;73.77
45888;BME280;31595;51.418;7.572;2022-07-12T03:25:12;101145.28;;;14.49;73.74
45888;BME280;31595;51.418;7.572;2022-07-12T03:27:39;101149.38;;;14.43;74.00
45888;BME280;31595;51.418;7.572;2022-07-12T03:30:07;101140.28;;;14.37;74.23
45888;BME280;31595;51.418;7.572;2022-07-12T03:32:35;101147.06;;;14.36;74.26
45888;BME280;31595;51.418;7.572;2022-07-12T03:35:03;101147.38;;;14.35;74.72
45888;BME280;31595;51.418;7.572;2022-07-12T03:37:42;101144.06;;;14.33;74.84
45888;BME280;31595;51.418;7.572;2022-07-12T03:40:10;101152.16;;;14.34;74.78
45888;BME280;31595;51.418;7.572;2022-07-12T03:42:38;101142.59;;;14.35;74.78
45888;BME280;31595;51.418;7.572;2022-07-12T03:45:06;101141.75;;;14.35;74.76
45888;BME280;31595;51.418;7.572;2022-07-12T03:47:34;101153.47;;;14.37;74.94
45888;BME280;31595;51.418;7.572;2022-07-12T03:50:02;101138.19;;;14.43;75.37
45888;BME280;31595;51.418;7.572;2022-07-12T03:52:30;101139.50;;;14.46;75.36
45888;BME280;31595;51.418;7.572;2022-07-12T03:55:00;101157.94;;;14.47;75.35
45888;BME280;31595;51.418;7.572;2022-07-12T03:57:29;101149.09;;;14.53;74.90
45888;BME280;31595;51.418;7.572;2022-07-12T03:59:56;101151.78;;;14.58;74.90
45888;BME280;31595;51.418;7.572;2022-07-12T04:02:24;101159.69;;;14.65;74.44
45888;BME280;31595;51.418;7.572;2022-07-12T04:04:52;101155.91;;;14.70;74.13
45888;BME280;31595;51.418;7.572;2022-07-12T04:07:19;101156.09;;;14.73;73.77
45888;BME280;31595;51.418;7.572;2022-07-12T04:09:47;101150.00;;;14.80;73.68
45888;BME280;31595;51.418;7.572;2022-07-12T04:12:16;101146.41;;;14.88;73.16
45888;BME280;31595;51.418;7.572;2022-07-12T04:14:43;101148.72;;;14.95;73.09
45888;BME280;31595;51.418;7.572;2022-07-12T04:17:11;101140.97;;;15.00;72.73
45888;BME280;31595;51.418;7.572;2022-07-12T04:19:38;101150.06;;;15.06;73.11
45888;BME280;31595;51.418;7.572;2022-07-12T04:22:05;101148.09;;;15.15;72.92
45888;BME280;31595;51.418;7.572;2022-07-12T04:24:32;101145.63;;;15.22;72.72
45888;BME280;31595;51.418;7.572;2022-07-12T04:27:00;101141.16;;;15.30;72.69
45888;BME280;31595;51.418;7.572;2022-07-12T04:29:28;101141.50;;;15.37;72.44
45888;BME280;31595;51.418;7.572;2022-07-12T04:31:56;101137.19;;;15.40;72.29
45888;BME280;31595;51.418;7.572;2022-07-12T04:34:23;101140.19;;;15.43;72.39
45888;BME280;31595;51.418;7.572;2022-07-12T04:36:50;101142.31;;;15.47;72.03
45888;BME280;31595;51.418;7.572;2022-07-12T04:39:17;101147.41;;;15.53;72.32
45888;BME280;31595;51.418;7.572;2022-07-12T04:41:45;101144.28;;;15.55;72.04
45888;BME280;31595;51.418;7.572;2022-07-12T04:44:13;101141.78;;;15.62;71.93
45888;BME280;31595;51.418;7.572;2022-07-12T04:46:41;101137.31;;;15.70;71.83
45888;BME280;31595;51.418;7.572;2022-07-12T04:49:09;101144.78;;;15.74;71.66
45888;BME280;31595;51.418;7.572;2022-07-12T04:51:36;101153.06;;;15.79;71.60
45888;BME280;31595;51.418;7.572;2022-07-12T04:54:03;101154.84;;;15.40;73.04
45888;BME280;31595;51.418;7.572;2022-07-12T04:56:31;101162.78;;;15.30;73.75
45888;BME280;31595;51.418;7.572;2022-07-12T04:58:58;101165.91;;;15.11;75.00
45888;BME280;31595;51.418;7.572;2022-07-12T05:01:25;101164.22;;;15.01;76.22
45888;BME280;31595;51.418;7.572;2022-07-12T05:03:54;101160.97;;;15.08;76.32
45888;BME280;31595;51.418;7.572;2022-07-12T05:06:21;101161.13;;;15.11;76.65
45888;BME280;31595;51.418;7.572;2022-07-12T05:08:49;101170.53;;;15.33;76.34
45888;BME280;31595;51.418;7.572;2022-07-12T05:11:17;101174.19;;;15.51;75.78
45888;BME280;31595;51.418;7.572;2022-07-12T05:13:45;101172.53;;;15.67;75.17
45888;BME280;31595;51.418;7.572;2022-07-12T05:16:12;101167.06;;;15.88;74.57
45888;BME280;31595;51.418;7.572;2022-07-12T05:18:40;101172.97;;;16.04;74.08
45888;BME280;31595;51.418;7.572;2022-07-12T05:21:08;101169.47;;;16.16;73.71
45888;BME280;31595;51.418;7.572;2022-07-12T05:23:36;101180.38;;;16.26;73.36
45888;BME280;31595;51.418;7.572;2022-07-12T05:26:03;101178.22;;;16.32;73.09
45888;BME280;31595;51.418;7.572;2022-07-12T05:28:31;101181.09;;;16.44;72.61
45888;BME280;31595;51.418;7.572;2022-07-12T05:30:58;101183.56;;;16.54;72.40
45888;BME280;31595;51.418;7.572;2022-07-12T05:33:25;101183.06;;;16.61;72.27
45888;BME280;31595;51.418;7.572;2022-07-12T05:35:53;101182.16;;;16.69;72.19
45888;BME280;31595;51.418;7.572;2022-07-12T05:38:22;101183.63;;;16.75;72.08
45888;BME280;31595;51.418;7.572;2022-07-12T05:40:49;101181.78;;;16.79;72.05
45888;BME280;31595;51.418;7.572;2022-07-12T05:43:17;101174.16;;;16.89;71.65
45888;BME280;31595;51.418;7.572;2022-07-12T05:45:44;101171.13;;;16.94;71.70
45888;BME280;31595;51.418;7.572;2022-07-12T05:48:12;101171.78;;;16.99;71.54
45888;BME280;31595;51.418;7.572;2022-07-12T05:50:39;101170.88;;;17.08;71.73
45888;BME280;31595;51.418;7.572;2022-07-12T05:53:07;101180.31;;;17.12;71.64
45888;BME280;31595;51.418;7.572;2022-07-12T05:55:50;101173.09;;;17.23;71.65
45888;BME280;31595;51.418;7.572;2022-07-12T05:58:17;101173.91;;;17.23;71.61
45888;BME280;31595;51.418;7.572;2022-07-12T06:00:46;101175.34;;;17.30;71.86
45888;BME280;31595;51.418;7.572;2022-07-12T06:03:13;101176.94;;;17.39;71.87
45888;BME280;31595;51.418;7.572;2022-07-12T06:05:41;101177.56;;;17.45;72.02
45888;BME280;31595;51.418;7.572;2022-07-12T06:08:09;101175.00;;;17.52;71.87
45888;BME280;31595;51.418;7.572;2022-07-12T06:10:36;101171.63;;;17.59;71.67
45888;BME280;31595;51.418;7.572;2022-07-12T06:13:05;101174.16;;;17.73;71.55
45888;BME280;31595;51.418;7.572;2022-07-12T06:15:32;101179.72;;;17.81;71.46
45888;BME280;31595;51.418;7.572;2022-07-12T06:17:59;101181.19;;;17.88;71.55
45888;BME280;31595;51.418;7.572;2022-07-12T06:20:27;101180.28;;;17.96;71.28
45888;BME280;31595;51.418;7.572;2022-07-12T06:22:58;101183.94;;;18.09;71.21
45888;BME280;31595;51.418;7.572;2022-07-12T06:25:25;101180.41;;;18.12;71.22
45888;BME280;31595;51.418;7.572;2022-07-12T06:27:53;101184.19;;;18.16;71.37
45888;BME280;31595;51.418;7.572;2022-07-12T06:30:22;101184.47;;;18.23;71.24
45888;BME280;31595;51.418;7.572;2022-07-12T06:32:49;101187.84;;;18.29;71.30
45888;BME280;31595;51.418;7.572;2022-07-12T06:35:18;101188.22;;;18.39;71.29
45888;BME280;31595;51.418;7.572;2022-07-12T06:37:45;101186.28;;;18.52;71.14
45888;BME280;31595;51.418;7.572;2022-07-12T06:40:12;101181.81;;;18.63;70.74
45888;BME280;31595;51.418;7.572;2022-07-12T06:42:43;101171.69;;;18.75;70.40
45888;BME280;31595;51.418;7.572;2022-07-12T06:45:11;101181.38;;;18.86;70.29
45888;BME280;31595;51.418;7.572;2022-07-12T06:47:39;101182.53;;;18.97;70.38
45888;BME280;31595;51.418;7.572;2022-07-12T06:50:07;101185.22;;;19.06;70.07
45888;BME280;31595;51.418;7.572;2022-07-12T06:52:35;101183.09;;;19.15;70.12
45888;BME280;31595;51.418;7.572;2022-07-12T06:55:03;101181.53;;;19.30;70.29
45888;BME280;31595;51.418;7.572;2022-07-12T06:57:31;101188.31;;;19.41;70.13
45888;BME280;31595;51.418;7.572;2022-07-12T06:59:59;101184.03;;;19.60;69.72
45888;BME280;31595;51.418;7.572;2022-07-12T07:02:26;101182.13;;;19.76;69.37
45888;BME280;31595;51.418;7.572;2022-07-12T07:04:55;101192.66;;;19.92;69.35
45888;BME280;31595;51.418;7.572;2022-07-12T07:07:23;101209.56;;;20.04;69.12
45888;BME280;31595;51.418;7.572;2022-07-12T07:09:50;101210.38;;;20.04;69.10
45888;BME280;31595;51.418;7.572;2022-07-12T07:12:17;101205.94;;;20.19;68.77
45888;BME280;31595;51.418;7.572;2022-07-12T07:14:44;101208.88;;;20.39;68.52
45888;BME280;31595;51.418;7.572;2022-07-12T07:17:14;101217.75;;;20.53;68.38
45888;BME280;31595;51.418;7.572;2022-07-12T07:19:42;101221.72;;;20.64;67.78
45888;BME280;31595;51.418;7.572;2022-07-12T07:22:11;101220.44;;;20.78;67.48
45888;BME280;31595;51.418;7.572;2022-07-12T07:24:38;101219.88;;;20.88;66.73
45888;BME280;31595;51.418;7.572;2022-07-12T07:27:06;101223.06;;;21.02;66.00
45888;BME280;31595;51.418;7.572;2022-07-12T07:29:34;101220.56;;;21.17;65.08
45888;BME280;31595;51.418;7.572;2022-07-12T07:32:19;101223.66;;;21.27;64.01
45888;BME280;31595;51.418;7.572;2022-07-12T07:34:46;101222.69;;;21.39;63.52
45888;BME280;31595;51.418;7.572;2022-07-12T07:37:15;101221.34;;;21.49;63.92
45888;BME280;31595;51.418;7.572;2022-07-12T07:39:42;101221.13;;;21.58;63.20
45888;BME280;31595;51.418;7.572;2022-07-12T07:42:10;101222.47;;;21.64;62.28
45888;BME280;31595;51.418;7.572;2022-07-12T07:44:37;101214.53;;;21.73;61.77
45888;BME280;31595;51.418;7.572;2022-07-12T07:47:04;101214.41;;;21.85;61.51
45888;BME280;31595;51.418;7.572;2022-07-12T07:49:31;101208.50;;;21.75;61.02
45888;BME280;31595;51.418;7.572;2022-07-12T07:51:59;101200.31;;;21.69;61.22
45888;BME280;31595;51.418;7.572;2022-07-12T07:54:28;101191.31;;;22.06;60.34
45888;BME280;31595;51.418;7.572;2022-07-12T07:56:55;101187.59;;;22.95;58.29
45888;BME280;31595;51.418;7.572;2022-07-12T07:59:23;101193.31;;;24.16;54.63
45888;BME280;31595;51.418;7.572;2022-07-12T08:01:50;101186.53;;;25.20;51.60
45888;BME280;31595;51.418;7.572;2022-07-12T08:04:20;101186.59;;;26.29;49.24
45888;BME280;31595;51.418;7.572;2022-07-12T08:06:48;101191.47;;;27.19;46.60
45888;BME280;31595;51.418;7.572;2022-07-12T08:09:16;101197.31;;;28.10;43.96
45888;BME280;31595;51.418;7.572;2022-07-12T08:11:45;101191.41;;;28.91;42.37
45888;BME280;31595;51.418;7.572;2022-07-12T08:14:12;101194.47;;;29.87;40.45
45888;BME280;31595;51.418;7.572;2022-07-12T08:16:39;101190.00;;;30.68;38.76
45888;BME280;31595;51.418;7.572;2022-07-12T08:19:07;101183.91;;;31.57;36.85
45888;BME280;31595;51.418;7.572;2022-07-12T08:21:34;101189.56;;;32.36;34.17
45888;BME280;31595;51.418;7.572;2022-07-12T08:24:01;101191.94;;;33.36;32.84
45888;BME280;31595;51.418;7.572;2022-07-12T08:26:29;101183.47;;;34.01;31.07
45888;BME280;31595;51.418;7.572;2022-07-12T08:28:57;101188.31;;;34.93;30.65
45888;BME280;31595;51.418;7.572;2022-07-12T08:31:24;101179.41;;;35.57;29.80
45888;BME280;31595;51.418;7.572;2022-07-12T08:33:52;101171.41;;;35.93;29.18
45888;BME280;31595;51.418;7.572;2022-07-12T08:36:19;101181.00;;;37.02;26.42
45888;BME280;31595;51.418;7.572;2022-07-12T08:38:46;101177.88;;;36.19;27.27
45888;BME280;31595;51.418;7.572;2022-07-12T08:41:14;101179.28;;;37.32;26.28
45888;BME280;31595;51.418;7.572;2022-07-12T08:43:42;101178.72;;;37.89;25.13
45888;BME280;31595;51.418;7.572;2022-07-12T08:46:12;101184.91;;;37.82;25.14
45888;BME280;31595;51.418;7.572;2022-07-12T08:48:42;101174.09;;;37.09;25.68
45888;BME280;31595;51.418;7.572;2022-07-12T08:51:10;101173.47;;;37.23;25.38
45888;BME280;31595;51.418;7.572;2022-07-12T08:53:38;101164.66;;;38.40;24.55
45888;BME280;31595;51.418;7.572;2022-07-12T08:56:06;101163.94;;;39.26;23.48
45888;BME280;31595;51.418;7.572;2022-07-12T08:58:34;101165.44;;;39.90;22.56
45888;BME280;31595;51.418;7.572;2022-07-12T09:01:01;101162.72;;;40.02;22.99
45888;BME280;31595;51.418;7.572;2022-07-12T09:03:33;101166.22;;;40.91;21.35
45888;BME280;31595;51.418;7.572;2022-07-12T09:06:00;101167.22;;;41.29;21.06
45888;BME280;31595;51.418;7.572;2022-07-12T09:08:32;101166.47;;;42.45;19.40
45888;BME280;31595;51.418;7.572;2022-07-12T09:11:00;101169.84;;;42.81;19.10
45888;BME280;31595;51.418;7.572;2022-07-12T09:13:47;101156.06;;;43.92;18.33
45888;BME280;31595;51.418;7.572;2022-07-12T09:16:15;101169.91;;;44.59;18.35
45888;BME280;31595;51.418;7.572;2022-07-12T09:18:45;101170.84;;;45.48;16.61
45888;BME280;31595;51.418;7.572;2022-07-12T09:21:21;101162.22;;;45.97;16.53
45888;BME280;31595;51.418;7.572;2022-07-12T09:23:54;101156.03;;;46.01;16.24
45888;BME280;31595;51.418;7.572;2022-07-12T09:26:22;101161.63;;;46.05;15.83
45888;BME280;31595;51.418;7.572;2022-07-12T09:28:50;101162.22;;;46.52;14.93
45888;BME280;31595;51.418;7.572;2022-07-12T09:31:19;101169.09;;;47.04;15.13
45888;BME280;31595;51.418;7.572;2022-07-12T09:34:03;101164.50;;;47.47;14.53
45888;BME280;31595;51.418;7.572;2022-07-12T09:36:57;101160.84;;;47.41;14.00
45888;BME280;31595;51.418;7.572;2022-07-12T09:39:24;101160.25;;;46.61;14.23
45888;BME280;31595;51.418;7.572;2022-07-12T09:41:54;101152.38;;;47.12;14.22
45888;BME280;31595;51.418;7.572;2022-07-12T09:44:24;101156.88;;;47.89;13.89
45888;BME280;31595;51.418;7.572;2022-07-12T09:46:52;101144.59;;;48.57;13.51
45888;BME280;31595;51.418;7.572;2022-07-12T09:49:20;101149.97;;;49.33;12.53
45888;BME280;31595;51.418;7.572;2022-07-12T09:51:49;101149.88;;;49.60;12.19
45888;BME280;31595;51.418;7.572;2022-07-12T09:54:25;101148.00;;;49.49;11.95
45888;BME280;31595;51.418;7.572;2022-07-12T09:56:53;101149.09;;;49.60;12.53
45888;BME280;31595;51.418;7.572;2022-07-12T09:59:23;101157.63;;;50.05;11.84
45888;BME280;31595;51.418;7.572;2022-07-12T10:01:51;101148.00;;;50.62;12.11
45888;BME280;31595;51.418;7.572;2022-07-12T10:04:23;101151.06;;;50.20;12.20
45888;BME280;31595;51.418;7.572;2022-07-12T10:06:50;101150.94;;;50.05;11.71
45888;BME280;31595;51.418;7.572;2022-07-12T10:09:18;101144.06;;;49.89;12.14
45888;BME280;31595;51.418;7.572;2022-07-12T10:11:46;101142.53;;;49.74;12.26
45888;BME280;31595;51.418;7.572;2022-07-12T10:14:14;101147.06;;;50.39;12.36
45888;BME280;31595;51.418;7.572;2022-07-12T10:16:43;101141.88;;;50.96;11.26
45888;BME280;31595;51.418;7.572;2022-07-12T10:19:25;101147.69;;;51.17;11.03
45888;BME280;31595;51.418;7.572;2022-07-12T10:21:56;101149.31;;;50.82;11.13
45888;BME280;31595;51.418;7.572;2022-07-12T10:24:46;101151.75;;;50.91;11.93
45888;BME280;31595;51.418;7.572;2022-07-12T10:27:33;101155.25;;;51.26;10.73
45888;BME280;31595;51.418;7.572;2022-07-12T10:30:16;101142.63;;;51.33;10.71
45888;BME280;31595;51.418;7.572;2022-07-12T10:32:44;101152.00;;;51.76;10.80
45888;BME280;31595;51.418;7.572;2022-07-12T10:35:18;101142.69;;;51.64;11.00
45888;BME280;31595;51.418;7.572;2022-07-12T10:38:13;101140.06;;;51.45;11.01
45888;BME280;31595;51.418;7.572;2022-07-12T10:40:41;101142.50;;;51.78;10.55
45888;BME280;31595;51.418;7.572;2022-07-12T10:43:18;101139.13;;;51.50;10.24
45888;BME280;31595;51.418;7.572;2022-07-12T10:45:48;101135.75;;;51.46;10.13
45888;BME280;31595;51.418;7.572;2022-07-12T10:48:21;101132.22;;;52.25;10.15
45888;BME280;31595;51.418;7.572;2022-07-12T10:50:52;101134.19;;;51.76;10.55
45888;BME280;31595;51.418;7.572;2022-07-12T10:53:25;101125.88;;;51.07;10.28
45888;BME280;31595;51.418;7.572;2022-07-12T10:56:09;101123.00;;;50.79;10.74
45888;BME280;31595;51.418;7.572;2022-07-12T10:58:38;101117.66;;;50.77;11.03
45888;BME280;31595;51.418;7.572;2022-07-12T11:01:08;101118.28;;;49.76;10.76
45888;BME280;31595;51.418;7.572;2022-07-12T11:03:41;101119.22;;;49.71;11.37
45888;BME280;31595;51.418;7.572;2022-07-12T11:06:14;101118.78;;;50.09;10.97
45888;BME280;31595;51.418;7.572;2022-07-12T11:08:53;101113.75;;;49.06;11.26
45888;BME280;31595;51.418;7.572;2022-07-12T11:11:22;101117.59;;;49.14;11.20
45888;BME280;31595;51.418;7.572;2022-07-12T11:13:50;101113.19;;;49.29;11.22
45888;BME280;31595;51.418;7.572;2022-07-12T11:16:18;101114.88;;;49.16;12.04
45888;BME280;31595;51.418;7.572;2022-07-12T11:18:46;101106.13;;;49.11;11.60
45888;BME280;31595;51.418;7.572;2022-07-12T11:21:20;101106.84;;;49.25;11.58
45888;BME280;31595;51.418;7.572;2022-07-12T11:23:50;101105.50;;;49.26;12.16
45888;BME280;31595;51.418;7.572;2022-07-12T11:26:18;101102.66;;;49.54;11.74
45888;BME280;31595;51.418;7.572;2022-07-12T11:28:46;101107.00;;;49.74;11.73
45888;BME280;31595;51.418;7.572;2022-07-12T11:31:15;101099.19;;;49.64;11.30
45888;BME280;31595;51.418;7.572;2022-07-12T11:33:44;101102.31;;;49.79;11.52
45888;BME280;31595;51.418;7.572;2022-07-12T11:36:13;101104.56;;;49.86;11.36
45888;BME280;31595;51.418;7.572;2022-07-12T11:38:43;101093.25;;;50.06;11.10
45888;BME280;31595;51.418;7.572;2022-07-12T11:41:12;101098.19;;;49.82;11.01
45888;BME280;31595;51.418;7.572;2022-07-12T11:43:40;101090.44;;;49.79;11.48
45888;BME280;31595;51.418;7.572;2022-07-12T11:46:08;101091.31;;;50.08;10.53
45888;BME280;31595;51.418;7.572;2022-07-12T11:48:36;101086.09;;;50.01;10.80
45888;BME280;31595;51.418;7.572;2022-07-12T11:51:08;101077.38;;;50.24;10.68
45888;BME280;31595;51.418;7.572;2022-07-12T11:53:37;101067.88;;;50.18;10.87
45888;BME280;31595;51.418;7.572;2022-07-12T11:56:08;101065.50;;;49.95;11.22
45888;BME280;31595;51.418;7.572;2022-07-12T11:58:37;101063.09;;;50.44;11.29
45888;BME280;31595;51.418;7.572;2022-07-12T12:01:09;101061.47;;;49.85;10.29
45888;BME280;31595;51.418;7.572;2022-07-12T12:03:42;101061.84;;;49.61;11.05
45888;BME280;31595;51.418;7.572;2022-07-12T12:06:09;101064.94;;;49.34;11.16
45888;BME280;31595;51.418;7.572;2022-07-12T12:08:37;101065.75;;;48.87;10.73
45888;BME280;31595;51.418;7.572;2022-07-12T12:11:05;101054.09;;;49.15;10.21
45888;BME280;31595;51.418;7.572;2022-07-12T12:13:33;101065.28;;;48.96;10.70
45888;BME280;31595;51.418;7.572;2022-07-12T12:16:02;101053.63;;;49.11;10.53
45888;BME280;31595;51.418;7.572;2022-07-12T12:18:31;101048.16;;;49.15;10.00
45888;BME280;31595;51.418;7.572;2022-07-12T12:21:01;101046.28;;;48.44;10.69
45888;BME280;31595;51.418;7.572;2022-07-12T12:23:29;101046.16;;;48.49;10.56
45888;BME280;31595;51.418;7.572;2022-07-12T12:26:12;101049.03;;;48.28;10.07
45888;BME280;31595;51.418;7.572;2022-07-12T12:28:47;101048.53;;;48.24;10.00
45888;BME280;31595;51.418;7.572;2022-07-12T12:31:16;101042.97;;;48.21;9.77
45888;BME280;31595;51.418;7.572;2022-07-12T12:33:46;101044.41;;;47.87;10.33
45888;BME280;31595;51.418;7.572;2022-07-12T12:36:18;101049.25;;;47.39;9.96
45888;BME280;31595;51.418;7.572;2022-07-12T12:38:49;101040.06;;;46.91;10.11
45888;BME280;31595;51.418;7.572;2022-07-12T12:41:19;101046.28;;;47.07;10.52
45888;BME280;31595;51.418;7.572;2022-07-12T12:43:55;101048.50;;;46.63;11.97
45888;BME280;31595;51.418;7.572;2022-07-12T12:46:42;101046.09;;;46.42;11.45
45888;BME280;31595;51.418;7.572;2022-07-12T12:49:10;101038.72;;;46.05;11.75
45888;BME280;31595;51.418;7.572;2022-07-12T12:51:51;101031.72;;;46.08;11.77
45888;BME280;31595;51.418;7.572;2022-07-12T12:54:30;101030.13;;;45.83;12.10
45888;BME280;31595;51.418;7.572;2022-07-12T12:56:59;101034.81;;;45.61;12.46
45888;BME280;31595;51.418;7.572;2022-07-12T12:59:26;101022.47;;;45.38;12.43